createdAt,value
2023-03-27T00:00:16.717Z,22.10
2023-03-27T00:03:05.012Z,23.20
2023-03-27T00:05:32.969Z,24.20
2023-03-27T00:08:01.781Z,23.40
2023-03-27T00:10:29.846Z,23.90
2023-03-27T00:12:58.100Z,23.50
2023-03-27T00:15:26.582Z,21.60
2023-03-27T00:17:55.536Z,24.60
2023-03-27T00:20:24.273Z,20.60
2023-03-27T00:27:12.404Z,17.80
2023-03-27T00:29:40.300Z,17.10
2023-03-27T00:32:08.323Z,15.20
2023-03-27T00:34:36.257Z,15.80
2023-03-27T00:37:05.785Z,14.10
2023-03-27T00:39:34.289Z,14.00
2023-03-27T00:42:02.270Z,15.40
2023-03-27T00:44:34.599Z,14.70
2023-03-27T00:47:04.455Z,15.80
2023-03-27T00:49:36.251Z,13.80
2023-03-27T00:52:06.789Z,14.30
2023-03-27T00:54:40.274Z,15.20
2023-03-27T01:00:51.822Z,15.70
2023-03-27T01:03:21.532Z,15.10
2023-03-27T01:05:51.057Z,15.50
2023-03-27T01:12:54.173Z,15.80
2023-03-27T01:15:48.165Z,15.50
2023-03-27T01:18:40.575Z,16.00
2023-03-27T01:22:05.443Z,17.70
2023-03-27T01:24:56.611Z,19.30
2023-03-27T01:27:51.675Z,18.50
2023-03-27T01:30:31.917Z,16.30
2023-03-27T01:33:14.551Z,16.50
2023-03-27T01:35:52.610Z,19.50
2023-03-27T01:38:32.062Z,18.20
2023-03-27T01:41:21.839Z,16.00
2023-03-27T01:44:03.159Z,17.20
2023-03-27T01:47:03.463Z,17.20
2023-03-27T01:49:41.155Z,17.30
2023-03-27T01:52:16.048Z,17.30
2023-03-27T01:54:58.384Z,19.60
2023-03-27T01:57:31.047Z,18.50
2023-03-27T02:00:18.030Z,18.90
2023-03-27T02:03:00.905Z,19.80
2023-03-27T02:05:42.961Z,18.70
2023-03-27T02:08:17.338Z,20.70
2023-03-27T02:10:50.839Z,17.50
2023-03-27T02:13:40.855Z,26.40
2023-03-27T02:16:15.740Z,23.90
2023-03-27T02:18:50.414Z,35.90
2023-03-27T02:21:18.479Z,42.00
2023-03-27T02:24:02.196Z,40.60
2023-03-27T02:26:33.073Z,34.00
2023-03-27T02:29:32.169Z,35.60
2023-03-27T02:32:25.222Z,30.00
2023-03-27T02:35:17.279Z,27.90
2023-03-27T02:37:59.229Z,27.00
2023-03-27T02:40:39.792Z,27.40
2023-03-27T02:43:21.842Z,26.70
2023-03-27T02:46:15.315Z,25.80
2023-03-27T02:48:47.943Z,25.90
2023-03-27T02:51:23.110Z,27.60
2023-03-27T02:53:57.724Z,23.70
2023-03-27T02:56:32.673Z,23.30
2023-03-27T02:59:08.875Z,26.80
2023-03-27T03:01:39.504Z,23.90
2023-03-27T03:04:30.114Z,24.20
2023-03-27T03:06:59.182Z,28.10
2023-03-27T03:09:31.202Z,26.60
2023-03-27T03:11:59.475Z,25.70
2023-03-27T03:14:38.847Z,23.30
2023-03-27T03:17:06.788Z,24.70
2023-03-27T03:19:34.619Z,26.60
2023-03-27T03:22:02.679Z,25.30
2023-03-27T03:24:44.188Z,24.30
2023-03-27T03:27:21.222Z,24.70
2023-03-27T03:30:25.690Z,22.90
2023-03-27T03:32:55.071Z,25.40
2023-03-27T03:35:25.089Z,23.20
2023-03-27T03:37:53.163Z,23.40
2023-03-27T03:40:21.463Z,22.10
2023-03-27T03:42:52.170Z,24.30
2023-03-27T03:45:20.480Z,22.60
2023-03-27T03:47:48.429Z,22.60
2023-03-27T03:50:16.542Z,22.10
2023-03-27T03:53:01.272Z,24.40
2023-03-27T03:55:29.682Z,23.50
2023-03-27T03:57:58.195Z,22.80
2023-03-27T04:04:35.380Z,22.80
2023-03-27T04:08:44.941Z,21.50
2023-03-27T04:11:12.848Z,24.10
2023-03-27T04:13:40.722Z,23.30
2023-03-27T04:16:09.126Z,24.30
2023-03-27T04:18:40.069Z,25.00
2023-03-27T04:24:50.940Z,24.90
2023-03-27T04:27:19.055Z,25.30
2023-03-27T04:29:47.543Z,28.70
2023-03-27T04:36:36.098Z,24.60
2023-03-27T04:39:04.694Z,32.00
2023-03-27T04:41:32.736Z,26.20
2023-03-27T04:44:00.744Z,25.90
2023-03-27T04:46:28.809Z,25.90
2023-03-27T04:53:09.535Z,27.90
2023-03-27T04:56:17.367Z,24.90
2023-03-27T04:58:46.001Z,27.70
2023-03-27T05:01:13.181Z,25.90
2023-03-27T05:03:39.964Z,24.00
2023-03-27T05:06:07.934Z,27.40
2023-03-27T05:08:35.471Z,25.50
2023-03-27T05:11:02.183Z,23.40
2023-03-27T05:13:29.204Z,22.30
2023-03-27T05:15:58.777Z,22.20
2023-03-27T05:18:25.975Z,21.50
2023-03-27T05:20:52.737Z,21.90
2023-03-27T05:23:19.477Z,22.90
2023-03-27T05:25:59.279Z,25.20
2023-03-27T05:28:29.152Z,20.60
2023-03-27T05:31:22.498Z,20.00
2023-03-27T05:34:54.808Z,26.20
2023-03-27T05:37:25.860Z,21.70
2023-03-27T05:39:56.259Z,22.80
2023-03-27T05:42:24.357Z,21.30
2023-03-27T05:44:52.454Z,20.90
2023-03-27T05:47:21.043Z,20.40
2023-03-27T05:49:48.863Z,20.50
2023-03-27T05:53:10.294Z,19.80
2023-03-27T05:55:39.571Z,22.90
2023-03-27T05:58:10.241Z,19.60
2023-03-27T06:00:44.489Z,19.30
2023-03-27T06:03:14.021Z,22.40
2023-03-27T06:05:42.586Z,21.60
2023-03-27T06:08:57.906Z,18.70
2023-03-27T06:11:48.105Z,18.90
2023-03-27T06:14:20.902Z,19.20
2023-03-27T06:16:49.452Z,19.00
2023-03-27T06:19:19.279Z,19.80
2023-03-27T06:21:49.002Z,17.30
2023-03-27T06:24:17.003Z,18.10
2023-03-27T06:26:48.363Z,18.90
2023-03-27T06:29:16.547Z,19.70
2023-03-27T06:31:44.939Z,17.70
2023-03-27T06:38:33.151Z,17.60
2023-03-27T06:41:01.860Z,15.60
2023-03-27T06:47:54.888Z,15.70
2023-03-27T06:50:25.471Z,12.70
2023-03-27T06:52:53.894Z,13.80
2023-03-27T06:55:24.315Z,10.70
2023-03-27T06:57:54.442Z,13.00
2023-03-27T07:00:26.207Z,12.10
2023-03-27T07:03:08.742Z,12.70
2023-03-27T07:05:41.306Z,14.30
2023-03-27T07:08:22.371Z,12.70
2023-03-27T07:11:07.359Z,15.60
2023-03-27T07:13:41.270Z,12.80
2023-03-27T07:16:13.828Z,13.30
2023-03-27T07:18:42.180Z,12.40
2023-03-27T07:21:10.610Z,12.10
2023-03-27T07:23:38.842Z,12.80
2023-03-27T07:26:08.770Z,13.70
2023-03-27T07:28:38.643Z,13.90
2023-03-27T07:31:16.639Z,13.70
2023-03-27T07:34:00.125Z,13.00
2023-03-27T07:36:30.143Z,12.50
2023-03-27T07:38:59.442Z,13.70
2023-03-27T07:41:31.509Z,13.20
2023-03-27T07:43:59.814Z,12.20
2023-03-27T07:46:28.251Z,9.90
2023-03-27T07:48:57.021Z,11.10
2023-03-27T07:51:25.390Z,10.20
2023-03-27T07:53:58.988Z,10.50
2023-03-27T07:56:32.029Z,8.40
2023-03-27T07:59:05.007Z,10.80
2023-03-27T08:01:34.477Z,10.50
2023-03-27T08:04:05.963Z,9.90
2023-03-27T08:06:34.672Z,10.00
2023-03-27T08:09:05.968Z,13.10
2023-03-27T08:11:40.023Z,10.00
2023-03-27T08:14:09.497Z,9.90
2023-03-27T08:16:37.775Z,11.00
2023-03-27T08:19:06.859Z,8.00
2023-03-27T08:21:34.994Z,9.80
2023-03-27T08:24:04.899Z,9.10
2023-03-27T08:26:33.845Z,10.00
2023-03-27T08:29:02.021Z,6.70
2023-03-27T08:31:31.431Z,8.20
2023-03-27T08:33:59.412Z,6.50
2023-03-27T08:36:32.085Z,9.50
2023-03-27T08:39:03.115Z,8.20
2023-03-27T08:41:39.109Z,7.40
2023-03-27T08:44:13.530Z,8.90
2023-03-27T08:46:50.151Z,6.50
2023-03-27T08:49:22.536Z,7.40
2023-03-27T08:52:14.699Z,8.80
2023-03-27T08:54:46.604Z,6.60
2023-03-27T08:57:23.155Z,6.50
2023-03-27T08:59:59.956Z,10.20
2023-03-27T09:02:55.968Z,6.20
2023-03-27T09:05:30.583Z,6.20
2023-03-27T09:08:10.658Z,8.20
2023-03-27T09:11:11.494Z,8.00
2023-03-27T09:13:52.599Z,7.90
2023-03-27T09:16:32.236Z,8.00
2023-03-27T09:19:12.056Z,7.90
2023-03-27T09:21:47.027Z,9.70
2023-03-27T09:24:29.629Z,7.10
2023-03-27T09:27:07.316Z,6.30
2023-03-27T09:29:41.791Z,7.90
2023-03-27T09:32:15.764Z,7.00
2023-03-27T09:34:44.312Z,6.00
2023-03-27T09:37:14.638Z,4.40
2023-03-27T09:39:52.437Z,5.50
2023-03-27T09:42:33.407Z,7.60
2023-03-27T09:45:06.480Z,4.70
2023-03-27T09:47:40.768Z,5.20
2023-03-27T09:50:41.541Z,4.10
2023-03-27T09:53:19.245Z,5.50
2023-03-27T09:55:53.239Z,5.40
2023-03-27T09:58:23.388Z,5.80
2023-03-27T10:01:07.861Z,6.30
2023-03-27T10:03:48.689Z,6.50
2023-03-27T10:06:39.551Z,7.00
2023-03-27T10:09:23.225Z,6.10
2023-03-27T10:12:00.574Z,4.30
2023-03-27T10:14:30.049Z,6.10
2023-03-27T10:16:58.156Z,5.70
2023-03-27T10:19:35.602Z,7.40
2023-03-27T10:22:20.368Z,4.80
2023-03-27T10:24:49.831Z,6.70
2023-03-27T10:27:25.508Z,5.80
2023-03-27T10:29:53.373Z,6.40
2023-03-27T10:32:45.402Z,4.30
2023-03-27T10:35:29.027Z,4.60
2023-03-27T10:37:57.649Z,7.70
2023-03-27T10:40:30.194Z,7.60
2023-03-27T10:43:06.187Z,8.30
2023-03-27T10:45:54.635Z,6.90
2023-03-27T10:48:38.418Z,6.70
2023-03-27T10:51:28.360Z,10.00
2023-03-27T10:54:12.069Z,7.20
2023-03-27T10:57:03.633Z,7.50
2023-03-27T11:00:10.699Z,5.90
2023-03-27T11:03:09.986Z,5.70
2023-03-27T11:05:44.632Z,5.80
2023-03-27T11:09:07.102Z,6.50
2023-03-27T11:11:52.221Z,4.20
2023-03-27T11:14:43.322Z,4.10
2023-03-27T11:17:16.218Z,4.40
2023-03-27T11:19:56.887Z,6.40
2023-03-27T11:22:57.139Z,6.80
2023-03-27T11:25:54.777Z,6.10
2023-03-27T11:28:59.835Z,5.30
2023-03-27T11:32:08.766Z,4.60
2023-03-27T11:35:22.885Z,5.10
2023-03-27T11:38:25.305Z,5.50
2023-03-27T11:40:54.957Z,4.20
2023-03-27T11:43:28.218Z,5.00
2023-03-27T11:46:09.998Z,4.00
2023-03-27T11:48:49.801Z,3.60
2023-03-27T11:51:21.526Z,4.00
2023-03-27T11:54:17.118Z,5.30
2023-03-27T11:56:59.371Z,5.70
2023-03-27T11:59:43.002Z,3.30
2023-03-27T12:02:47.742Z,2.60
2023-03-27T12:05:48.785Z,7.90
2023-03-27T12:08:27.444Z,4.70
2023-03-27T12:10:58.119Z,5.20
2023-03-27T12:14:02.282Z,3.80
2023-03-27T12:24:03.290Z,3.70
2023-03-27T12:27:33.740Z,5.20
2023-03-27T12:34:39.445Z,4.40
2023-03-27T12:37:41.988Z,4.50
2023-03-27T12:44:28.058Z,4.10
2023-03-27T13:01:42.032Z,1.50
2023-03-27T13:08:38.483Z,2.50
2023-03-27T13:11:40.991Z,1.70
2023-03-27T13:14:35.290Z,2.90
2023-03-27T13:18:04.876Z,2.80
2023-03-27T13:24:40.646Z,2.30
2023-03-27T14:18:51.424Z,3.50
2023-03-27T14:50:57.004Z,1.70
2023-03-27T14:54:11.733Z,1.70
2023-03-27T15:11:41.310Z,5.30
2023-03-27T15:53:42.418Z,2.90
2023-03-27T15:56:38.330Z,2.10
2023-03-27T15:59:15.558Z,2.40
2023-03-27T16:01:54.095Z,2.50
2023-03-27T16:07:09.695Z,2.20
2023-03-27T16:20:48.647Z,2.30
2023-03-27T16:34:34.033Z,3.90
2023-03-27T16:47:41.734Z,3.30
2023-03-27T16:50:22.038Z,3.60
2023-03-27T16:52:53.050Z,3.10
2023-03-27T16:55:28.623Z,4.20
2023-03-27T16:57:57.505Z,4.40
2023-03-27T17:00:34.146Z,4.20
2023-03-27T17:03:02.376Z,5.50
2023-03-27T17:05:51.834Z,3.60
2023-03-27T17:08:21.491Z,2.60
2023-03-27T17:10:50.124Z,3.30
2023-03-27T17:13:20.738Z,4.50
2023-03-27T17:15:55.678Z,4.10
2023-03-27T17:19:55.529Z,3.30
2023-03-27T17:24:06.122Z,2.30
2023-03-27T17:28:07.242Z,9.50
2023-03-27T17:31:14.543Z,2.60
2023-03-27T17:34:30.786Z,3.40
2023-03-27T17:38:06.700Z,3.90
2023-03-27T17:41:49.320Z,3.30
2023-03-27T17:45:24.078Z,2.90
2023-03-27T17:49:06.596Z,3.80
2023-03-27T17:52:50.045Z,3.50
2023-03-27T18:07:05.544Z,4.40
2023-03-27T18:10:21.774Z,4.00
2023-03-27T18:12:55.138Z,4.10
2023-03-27T18:15:21.927Z,3.40
2023-03-27T18:17:49.834Z,3.70
2023-03-27T18:20:16.921Z,3.80
2023-03-27T18:23:46.061Z,4.70
2023-03-27T18:51:41.861Z,3.80
2023-03-27T18:54:10.241Z,2.90
2023-03-27T18:56:40.406Z,3.90
2023-03-27T18:59:11.378Z,3.40
2023-03-27T19:01:39.746Z,2.90
2023-03-27T19:04:09.777Z,3.40
2023-03-27T19:06:39.811Z,3.70
2023-03-27T19:09:10.850Z,3.60
2023-03-27T19:11:40.164Z,3.60
2023-03-27T19:14:11.563Z,3.80
2023-03-27T19:17:21.197Z,3.70
2023-03-27T19:20:02.455Z,4.50
2023-03-27T19:22:32.877Z,4.50
2023-03-27T19:25:05.155Z,3.30
2023-03-27T19:27:38.749Z,4.80
2023-03-27T19:30:12.086Z,3.90
2023-03-27T19:33:37.769Z,3.40
2023-03-27T19:36:12.097Z,3.80
2023-03-27T19:38:40.656Z,4.30
2023-03-27T19:41:12.903Z,4.00
2023-03-27T19:43:41.118Z,4.40
2023-03-27T19:48:42.020Z,3.60
2023-03-27T19:51:10.000Z,3.90
2023-03-27T19:53:42.216Z,3.10
2023-03-27T19:56:11.961Z,4.90
2023-03-27T19:58:43.727Z,4.10
2023-03-27T20:01:18.766Z,4.00
2023-03-27T20:03:50.715Z,3.70
2023-03-27T20:06:24.305Z,4.50
2023-03-27T20:08:54.093Z,4.50
2023-03-27T20:11:31.161Z,4.10
2023-03-27T20:14:03.186Z,3.90
2023-03-27T20:16:50.163Z,4.70
2023-03-27T20:19:22.792Z,3.40
2023-03-27T20:22:02.605Z,4.60
2023-03-27T20:24:30.908Z,4.70
2023-03-27T20:27:22.145Z,5.00
2023-03-27T20:29:58.402Z,5.30
2023-03-27T20:32:27.915Z,5.00
2023-03-27T20:35:24.709Z,4.20
2023-03-27T20:37:59.273Z,6.10
2023-03-27T20:40:32.860Z,5.20
2023-03-27T20:43:06.375Z,4.60
2023-03-27T20:45:34.472Z,4.90
2023-03-27T20:48:06.951Z,4.90
2023-03-27T20:50:36.971Z,3.90
2023-03-27T20:53:09.993Z,4.30
2023-03-27T20:55:49.595Z,4.90
2023-03-27T20:58:28.829Z,4.80
2023-03-27T21:01:38.028Z,4.00
2023-03-27T21:04:07.196Z,5.90
2023-03-27T21:06:36.717Z,5.70
2023-03-27T21:16:42.476Z,5.00
2023-03-27T21:19:14.332Z,5.00
2023-03-27T21:21:42.247Z,5.10
2023-03-27T21:24:10.619Z,5.20
2023-03-27T21:26:39.324Z,7.70
2023-03-27T21:29:15.482Z,4.90
2023-03-27T21:31:43.695Z,5.50
2023-03-27T21:34:35.432Z,4.70
2023-03-27T21:37:03.532Z,6.30
2023-03-27T21:39:32.035Z,7.20
2023-03-27T21:42:04.531Z,7.70
2023-03-27T21:44:33.598Z,5.20
2023-03-27T21:56:50.278Z,5.50
2023-03-27T21:59:18.766Z,6.50
2023-03-27T22:01:50.875Z,5.30
2023-03-27T22:04:21.693Z,5.70
2023-03-27T22:06:52.326Z,5.80
2023-03-27T22:09:20.390Z,5.70
2023-03-27T22:11:48.402Z,8.10
2023-03-27T22:14:19.562Z,6.00
2023-03-27T22:16:48.499Z,6.00
2023-03-27T22:19:17.238Z,6.40
2023-03-27T22:21:47.798Z,6.70
2023-03-27T22:24:16.165Z,6.20
2023-03-27T22:26:44.345Z,7.00
2023-03-27T22:29:12.923Z,7.10
2023-03-27T22:31:40.994Z,6.80
2023-03-27T22:34:10.169Z,7.00
2023-03-27T22:36:41.601Z,7.30
2023-03-27T22:39:09.610Z,7.10
2023-03-27T22:41:37.761Z,6.30
2023-03-27T22:44:08.645Z,6.70
2023-03-27T22:46:58.930Z,7.40
2023-03-27T22:49:27.323Z,6.60
2023-03-27T22:51:56.432Z,7.90
2023-03-27T22:54:24.672Z,6.80
2023-03-27T22:56:55.529Z,6.40
2023-03-27T22:59:24.108Z,8.00
2023-03-27T23:06:06.751Z,9.00
2023-03-27T23:08:37.018Z,8.00
2023-03-27T23:11:08.085Z,6.70
2023-03-27T23:13:41.459Z,8.60
2023-03-27T23:16:11.026Z,7.50
2023-03-27T23:18:39.789Z,7.60
2023-03-27T23:21:11.052Z,7.30
2023-03-27T23:23:40.798Z,7.00
2023-03-27T23:26:10.396Z,6.90
2023-03-27T23:28:41.759Z,6.60
2023-03-27T23:31:15.743Z,6.70
2023-03-27T23:34:35.644Z,6.70
2023-03-27T23:37:08.070Z,7.40
2023-03-27T23:39:36.106Z,8.60
2023-03-27T23:42:04.105Z,7.50
2023-03-27T23:44:32.211Z,6.60
2023-03-27T23:47:00.434Z,8.00
2023-03-27T23:49:29.257Z,7.50
2023-03-27T23:51:57.414Z,7.50
2023-03-27T23:54:25.507Z,9.00
2023-03-27T23:56:54.491Z,9.40
2023-03-27T23:59:22.537Z,8.10
